• Join FlightAware (Why Join?)
  • Login
  • US Flag 
10:56PM EDT


 

Airport Tracker/Info


-or-


 

Live Flight TrackerFlight Track Log ✈ UPS844 ✈ 03-May-2013 ✈ KSDF - KSLC

Flight Track Log - Related Links

Times and Time Zones

All times are in EDT time to prevent confusion due to time zone crossing. See the UPS844 flight status page for this flight to view local times or setup timezone preferences in your user account.

Time Position Orientation Groundspeed Altitude Reporting Facility
EDT Latitude Longitude Course Direction KTS MPH feet Rate Location/Type
03:40AM 38.1530 -85.7390 164° South 169 194 1,700  Level FlightAware
03:40AM 38.1250 -85.7430 186° South 175 201 3,400 2,280 Climbing FlightAware
03:41AM 38.0970 -85.7480 188° South 214 246 4,200 1,500 Climbing FlightAware
03:41AM 38.0870 -85.7530 201° Southwest 229 264 4,400 1,440 Climbing FlightAware
03:41AM 38.0760 -85.7660 223° Southwest 245 282 4,800 1,980 Climbing FlightAware
03:42AM 38.0700 -85.7890 252° West 267 307 5,400 2,580 Climbing FlightAware
03:42AM 38.0730 -85.8110 280° West 272 313 6,100 2,880 Climbing FlightAware
03:42AM 38.0830 -85.8590 285° West 286 329 7,600 3,120 Climbing FlightAware
03:43AM 38.0920 -85.8990 286° West 289 333 9,000 2,820 Climbing FlightAware
03:44AM 38.1090 -85.9730 286° West 311 358 10,900 1,920 Climbing FlightAware
03:44AM 38.1240 -86.0400 286° West 354 407 11,600 2,160 Climbing FlightAware
03:45AM 38.1470 -86.1450 286° West 361 415 14,000 2,220 Climbing FlightAware
03:46AM 38.1650 -86.2280 285° West 390 449 15,000 1,560 Climbing FlightAware
03:46AM 38.1850 -86.3170 286° West 412 474 16,100 1,860 Climbing FlightAware
03:47AM 38.2090 -86.4260 286° West 425 489 17,700 2,100 Climbing FlightAware
03:48AM 38.2310 -86.5260 286° West 435 501 19,100 2,040 Climbing FlightAware
03:48AM 38.2540 -86.6360 285° West 442 509 20,600 1,920 Climbing FlightAware
03:49AM 38.2770 -86.7400 286° West 450 518 21,900 1,800 Climbing FlightAware
03:50AM 38.3020 -86.8560 285° West 458 527 23,200 1,680 Climbing FlightAware
03:51AM 38.3240 -86.9610 285° West 467 537 24,300 1,620 Climbing FlightAware
03:51AM 38.3480 -87.0710 286° West 472 543 25,400 1,380 Climbing FlightAware
03:52AM 38.3720 -87.1870 285° West 480 552 26,300 1,500 Climbing FlightAware
03:53AM 38.3950 -87.2960 285° West 476 548 27,600 1,920 Climbing FlightAware
03:53AM 38.4180 -87.4040 285° West 468 539 28,900 1,800 Climbing FlightAware
03:54AM 38.4430 -87.5250 285° West 463 533 30,200 1,680 Climbing FlightAware
03:55AM 38.4650 -87.6310 285° West 457 526 31,300 1,320 Climbing FlightAware
03:55AM 38.4860 -87.7350 284° West 459 528 32,000 480 Climbing FlightAware
03:56AM 38.5070 -87.8370 285° West 457 526 32,000  Level FlightAware
03:57AM 38.5320 -87.9560 285° West 453 521 32,000  Level FlightAware
03:58AM 38.5560 -88.0760 284° West 452 520 32,000  Level FlightAware
03:58AM 38.5760 -88.1740 285° West 452 520 32,000  Level FlightAware
03:59AM 38.6000 -88.2930 285° West 454 522 32,000  Level FlightAware
04:00AM 38.6210 -88.3970 285° West 455 524 32,000  Level FlightAware
04:00AM 38.6420 -88.5040 284° West 455 524 32,000  Level FlightAware
04:01AM 38.6620 -88.6060 284° West 455 524 32,000  Level FlightAware
04:02AM 38.6860 -88.7260 284° West 454 522 32,000  Level FlightAware
04:02AM 38.7090 -88.8430 284° West 453 521 32,000  Level FlightAware
04:03AM 38.7280 -88.9410 284° West 452 520 32,000  Level FlightAware
04:04AM 38.7480 -89.0480 284° West 451 519 32,000  Level FlightAware
04:05AM 38.7710 -89.1670 284° West 450 518 32,000  Level FlightAware
04:05AM 38.7910 -89.2680 284° West 451 519 32,000  Level FlightAware
04:06AM 38.8130 -89.3820 284° West 452 520 32,000  Level FlightAware
04:07AM 38.8320 -89.4810 284° West 453 521 32,000  Level FlightAware
04:07AM 38.8520 -89.5910 283° West 454 522 32,000  Level FlightAware
04:08AM 38.8750 -89.7120 284° West 457 526 32,000  Level FlightAware
04:09AM 38.8940 -89.8150 283° West 458 527 32,000  Level FlightAware
04:09AM 38.9150 -89.9260 284° West 457 526 32,000  Level FlightAware
04:10AM 38.9360 -90.0400 283° West 458 527 32,000  Level FlightAware
04:11AM 38.9560 -90.1510 283° West 461 531 32,000  Level FlightAware
04:11AM 38.9750 -90.2550 283° West 461 531 32,000  Level FlightAware
04:12AM 38.9970 -90.3730 284° West 465 535 32,000  Level FlightAware
04:13AM 39.0180 -90.4940 283° West 466 536 32,000  Level FlightAware
04:14AM 39.0380 -90.6020 283° West 467 537 32,000  Level FlightAware
04:14AM 39.0600 -90.7270 283° West 467 537 32,000  Level FlightAware
04:15AM 39.0740 -90.8060 283° West 468 539 32,000  Level FlightAware
04:16AM 39.0980 -90.9440 283° West 468 539 32,000  Level FlightAware
04:16AM 39.1170 -91.0500 283° West 468 539 32,000  Level FlightAware
04:17AM 39.1380 -91.1700 283° West 466 536 32,000  Level FlightAware
04:18AM 39.1570 -91.2800 283° West 463 533 32,000  Level FlightAware
04:19AM 39.1780 -91.4050 282° West 464 534 32,000  Level FlightAware
04:19AM 39.1950 -91.5100 282° West 469 540 32,000  Level FlightAware
04:20AM 39.2170 -91.6360 283° West 468 539 32,000  Level FlightAware
04:21AM 39.2350 -91.7420 282° West 466 536 32,000  Level FlightAware
04:21AM 39.2530 -91.8480 282° West 466 536 32,000  Level FlightAware
04:22AM 39.2700 -91.9550 282° West 468 539 32,000  Level FlightAware
04:23AM 39.2900 -92.0780 282° West 468 539 32,000  Level FlightAware
04:23AM 39.3060 -92.1710 283° West 468 539 32,000  Level FlightAware
04:24AM 39.3210 -92.2640 282° West 468 539 32,000  Level FlightAware
04:25AM 39.3490 -92.4330 282° West 460 529 32,000  Level FlightAware
04:25AM 39.3620 -92.5210 281° West 460 529 32,000  Level FlightAware
04:26AM 39.3840 -92.6500 282° West 461 531 32,000  Level FlightAware
04:27AM 39.4030 -92.7740 281° West 462 532 32,000  Level FlightAware
04:28AM 39.4200 -92.8830 281° West 464 534 32,000  Level FlightAware
04:28AM 39.4370 -92.9880 282° West 463 533 32,000  Level FlightAware
04:29AM 39.4560 -93.1130 281° West 461 531 32,000  Level FlightAware
04:30AM 39.4700 -93.2020 282° West 462 532 32,000  Level FlightAware
04:30AM 39.4920 -93.3410 282° West 466 536 32,000  Level FlightAware
04:31AM 39.5090 -93.4560 281° West 467 537 32,000  Level FlightAware
04:32AM 39.5260 -93.5660 281° West 468 539 32,000  Level FlightAware
04:33AM 39.5440 -93.6870 281° West 469 540 32,000  Level FlightAware
04:33AM 39.5600 -93.7970 281° West 471 542 32,000  Level FlightAware
04:34AM 39.5790 -93.9250 281° West 474 545 32,000  Level FlightAware
04:35AM 39.5960 -94.0370 281° West 473 544 32,000  Level FlightAware
04:35AM 39.6120 -94.1510 280° West 472 543 32,000  Level FlightAware
04:36AM 39.6300 -94.2730 281° West 469 540 32,000  Level FlightAware
04:37AM 39.6460 -94.3830 281° West 468 539 32,000  Level FlightAware
04:37AM 39.6640 -94.5100 280° West 467 537 32,000  Level FlightAware
04:38AM 39.6790 -94.6150 281° West 469 540 32,000  Level FlightAware
04:39AM 39.6950 -94.7320 280° West 471 542 32,000  Level FlightAware
04:40AM 39.7120 -94.8520 280° West 474 545 32,000  Level FlightAware
04:40AM 39.7280 -94.9670 280° West 474 545 32,000  Level FlightAware
04:41AM 39.7460 -95.0960 280° West 476 548 32,000  Level FlightAware
04:42AM 39.7300 -94.9810 100° East 474 545 32,000  Level FlightAware
04:42AM 39.7460 -95.0960 280° West 476 548 32,000  Level FlightAware
04:43AM 39.7640 -95.2290 280° West 477 549 32,000  Level FlightAware
04:44AM 39.7770 -95.3250 280° West 477 549 32,000  Level FlightAware
04:44AM 39.7960 -95.4660 280° West 477 549 32,000  Level FlightAware
04:45AM 39.8130 -95.5920 280° West 476 548 32,000  Level FlightAware
04:46AM 39.8220 -95.6630 279° West 475 547 32,000  Level FlightAware
04:47AM 39.8340 -95.7530 280° West 475 547 32,000  Level FlightAware
04:47AM 39.8450 -95.8320 280° West 475 547 32,000  Level FlightAware
04:48AM 39.8530 -95.9020 278° West 476 548 32,000  Level FlightAware
04:48AM 39.8640 -95.9860 280° West 475 547 32,000  Level FlightAware
04:49AM 39.8930 -96.2110 280° West 474 545 32,000  Level FlightAware
04:50AM 39.9120 -96.3650 279° West 472 543 32,000  Level FlightAware
04:51AM 39.9320 -96.5270 279° West 469 540 32,000  Level FlightAware
04:52AM 39.9470 -96.6460 279° West 469 540 32,000  Level FlightAware
04:53AM 39.9580 -96.7410 279° West 469 540 32,000  Level FlightAware
04:53AM 39.9700 -96.8360 279° West 469 540 32,000  Level FlightAware
04:54AM 39.9810 -96.9310 279° West 469 540 32,000  Level FlightAware
04:55AM 39.9930 -97.0260 279° West 469 540 32,000  Level FlightAware
04:55AM 40.0260 -97.3040 279° West 475 547 32,000  Level FlightAware
04:56AM 40.0450 -97.4650 279° West 473 544 32,000  Level FlightAware
04:57AM 40.0610 -97.6130 278° West 472 543 32,000  Level FlightAware
04:58AM 40.0720 -97.7090 279° West 472 543 32,000  Level FlightAware
04:59AM 40.0820 -97.8050 278° West 472 543 32,000  Level FlightAware
04:59AM 40.0920 -97.9020 278° West 472 543 32,000  Level FlightAware
05:00AM 40.1050 -98.0220 278° West 472 543 32,000  Level FlightAware
05:01AM 40.1150 -98.1180 278° West 472 543 32,000  Level FlightAware
05:01AM 40.1260 -98.2140 279° West 472 543 32,000  Level FlightAware
05:02AM 40.1360 -98.3100 278° West 472 543 32,000  Level FlightAware
05:03AM 40.1460 -98.4060 278° West 472 543 32,000  Level FlightAware
05:04AM 40.1590 -98.5270 278° West 472 543 32,000  Level FlightAware
05:04AM 40.1700 -98.6230 279° West 472 543 32,000  Level FlightAware
05:05AM 40.1800 -98.7190 278° West 472 543 32,000  Level FlightAware
05:06AM 40.1900 -98.8150 278° West 472 543 32,000  Level FlightAware
05:06AM 40.2010 -98.9110 279° West 472 543 32,000  Level FlightAware
05:07AM 40.2500 -99.4039 279° West 457 526 32,000  Level Minneapolis Center
05:07AM 40.2569 -99.4700 278° West 456 525 32,000  Level Denver Center
05:08AM 40.2719 -99.6342 277° West 454 522 32,000  Level Denver Center
05:09AM 40.2886 -99.7972 278° West 451 519 32,000  Level Denver Center
05:10AM 40.3017 -99.9408 277° West 451 519 32,000  Level Denver Center
05:11AM 40.3183 -100.1219 277° West 449 517 32,000  Level Denver Center
05:12AM 40.3317 -100.2783 276° West 451 519 32,000  Level Denver Center
05:13AM 40.3464 -100.4308 277° West 443 510 32,000  Level Denver Center
05:19AM 40.4305 -101.4290 277° West 434 499 32,000  Level FlightAware ADS-B
05:20AM 40.4369 -101.5080 276° West 432 497 32,000  Level FlightAware ADS-B
05:20AM 40.4431 -101.5880 276° West 432 497 32,000  Level FlightAware ADS-B
05:21AM 40.4494 -101.6670 276° West 434 499 32,000  Level FlightAware ADS-B
05:21AM 40.4556 -101.7460 276° West 438 504 32,000  Level FlightAware ADS-B
05:22AM 40.4617 -101.8250 276° West 440 506 32,000  Level FlightAware ADS-B
05:22AM 40.4678 -101.9070 276° West 438 504 32,000  Level FlightAware ADS-B
05:23AM 40.4737 -101.9860 276° West 434 499 32,000  Level FlightAware ADS-B
05:23AM 40.4797 -102.0650 276° West 432 497 32,000 -120 Level FlightAware ADS-B
05:24AM 40.4856 -102.1450 276° West 431 496 31,900 -120 Descending FlightAware ADS-B
05:24AM 40.4915 -102.2260 275° West 431 496 31,900 60 Level FlightAware ADS-B
05:25AM 40.4973 -102.3040 276° West 432 497 32,000 60 Climbing FlightAware ADS-B
05:25AM 40.5030 -102.3850 275° West 433 498 32,000  Level FlightAware ADS-B
05:26AM 40.5087 -102.4630 276° West 433 498 32,000  Level FlightAware ADS-B
05:26AM 40.5143 -102.5440 275° West 433 498 32,000  Level FlightAware ADS-B
05:27AM 40.5198 -102.6230 275° West 432 497 32,000  Level FlightAware ADS-B
05:27AM 40.5252 -102.7010 275° West 431 496 32,000  Level FlightAware ADS-B
05:28AM 40.5307 -102.7820 275° West 430 495 32,000  Level FlightAware ADS-B
05:28AM 40.5361 -102.8620 275° West 430 495 32,000  Level FlightAware ADS-B
05:29AM 40.5414 -102.9400 275° West 429 494 32,000  Level FlightAware ADS-B
05:29AM 40.5466 -103.0180 275° West 429 494 32,000  Level FlightAware ADS-B
05:30AM 40.5517 -103.0950 275° West 428 493 32,000  Level FlightAware ADS-B
05:30AM 40.5567 -103.1750 275° West 426 490 32,000  Level FlightAware ADS-B
05:31AM 40.5617 -103.2530 275° West 426 490 32,000  Level FlightAware ADS-B
05:31AM 40.5666 -103.3300 275° West 426 490 32,000  Level FlightAware ADS-B
05:32AM 40.5716 -103.4080 275° West 427 491 32,000  Level FlightAware ADS-B
05:32AM 40.5767 -103.4910 275° West 428 493 32,000  Level FlightAware ADS-B
05:33AM 40.5815 -103.5690 275° West 429 494 32,000  Level FlightAware ADS-B
05:33AM 40.5862 -103.6490 274° West 429 494 32,000  Level FlightAware ADS-B
05:34AM 40.5910 -103.7270 275° West 429 494 32,000  Level FlightAware ADS-B
05:35AM 40.5960 -103.8100 275° West 430 495 32,000  Level FlightAware ADS-B
05:35AM 40.6007 -103.8890 275° West 431 496 32,000  Level FlightAware ADS-B
05:36AM 40.6054 -103.9700 274° West 432 497 32,000  Level FlightAware ADS-B
05:36AM 40.6098 -104.0480 274° West 432 497 32,000  Level FlightAware ADS-B
05:37AM 40.6144 -104.1270 274° West 433 498 32,000  Level FlightAware ADS-B
05:37AM 40.6188 -104.2080 274° West 433 498 32,000  Level FlightAware ADS-B
05:38AM 40.6231 -104.2870 274° West 432 497 32,000  Level FlightAware ADS-B
05:38AM 40.6274 -104.3660 274° West 432 497 32,000  Level FlightAware ADS-B
05:39AM 40.6317 -104.4440 274° West 432 497 32,000  Level FlightAware ADS-B
05:39AM 40.6359 -104.5260 274° West 433 498 32,000  Level FlightAware ADS-B
05:40AM 40.6401 -104.6040 274° West 434 499 32,000  Level FlightAware ADS-B
05:40AM 40.6443 -104.6860 274° West 436 502 32,000  Level FlightAware ADS-B
05:41AM 40.6484 -104.7660 274° West 437 503 32,000  Level FlightAware ADS-B
05:41AM 40.6524 -104.8450 274° West 439 505 32,000  Level FlightAware ADS-B
05:42AM 40.6566 -104.9310 274° West 441 507 32,000  Level FlightAware ADS-B
05:42AM 40.6605 -105.0110 274° West 441 507 32,000  Level FlightAware ADS-B
05:43AM 40.6644 -105.0910 274° West 442 509 32,000  Level FlightAware ADS-B
05:43AM 40.6688 -105.1850 274° West 442 509 32,000  Level FlightAware ADS-B
05:44AM 40.6733 -105.2820 274° West 443 510 32,000  Level FlightAware ADS-B
05:44AM 40.6781 -105.3870 273° West 442 509 32,000  Level FlightAware ADS-B
05:45AM 40.6817 -105.4670 273° West 441 507 32,000  Level FlightAware ADS-B
05:46AM 40.6858 -105.5580 273° West 441 507 32,000  Level FlightAware ADS-B
05:46AM 40.6890 -105.6380 273° West 439 505 32,000  Level FlightAware
05:47AM 40.6960 -105.7880 274° West 439 505 32,000 -120 Level FlightAware
05:47AM 40.6990 -105.8630 273° West 442 509 31,900  Descending FlightAware
05:48AM 40.7030 -105.9660 273° West 446 513 32,000 60 Climbing FlightAware
05:49AM 40.7080 -106.0930 273° West 448 516 32,000  Level FlightAware
05:50AM 40.7120 -106.2000 273° West 448 516 32,000  Level FlightAware
05:50AM 40.7160 -106.3090 273° West 447 514 32,000  Level FlightAware
05:51AM 40.7200 -106.4170 273° West 447 514 32,000  Level FlightAware
05:52AM 40.7230 -106.5290 272° West 447 514 32,000  Level FlightAware
05:52AM 40.7290 -106.6760 273° West 445 512 32,000  Level FlightAware
05:53AM 40.7330 -106.8000 272° West 444 511 32,000 -120 Level FlightAware
05:54AM 40.7360 -106.9000 272° West 445 512 31,900 -120 Descending FlightAware
05:55AM 40.7390 -107.0150 272° West 445 512 31,900  Level FlightAware
05:55AM 40.7420 -107.1080 272° West 445 512 31,900  Level FlightAware
05:56AM 40.7440 -107.2000 272° West 445 512 31,900  Level FlightAware
05:57AM 40.7470 -107.2920 272° West 445 512 31,900  Level FlightAware
05:57AM 40.7490 -107.3850 272° West 445 512 31,900  Level FlightAware
05:58AM 40.7520 -107.5000 272° West 445 512 31,900  Level FlightAware
05:59AM 40.7550 -107.5920 272° West 445 512 31,900  Level FlightAware
06:00AM 40.7570 -107.6850 272° West 445 512 31,900  Level FlightAware
06:00AM 40.7590 -107.7770 272° West 445 512 31,900  Level FlightAware
06:01AM 40.7620 -107.8690 272° West 445 512 31,900  Level FlightAware
06:02AM 40.7650 -107.9850 272° West 445 512 31,900  Level FlightAware
06:02AM 40.7670 -108.0770 272° West 445 512 31,900  Level FlightAware
06:03AM 40.7700 -108.1700 272° West 445 512 31,900 60 Level FlightAware
06:04AM 40.7769 -108.5136 272° West 443 510 32,000  Climbing Salt Lake Center
06:05AM 40.7794 -108.6700 271° West 443 510 32,000  Level Salt Lake Center
06:06AM 40.7819 -108.8272 271° West 444 511 32,000  Level Salt Lake Center
06:07AM 40.7892 -109.0097 273° West 445 512 32,000  Level Salt Lake Center
06:08AM 40.8061 -109.1619 278° West 438 504 32,000  Level Salt Lake Center
06:09AM 40.8283 -109.3244 280° West 436 502 32,000  Level Salt Lake Center
06:10AM 40.8464 -109.4656 280° West 438 504 32,000  Level Salt Lake Center
06:11AM 40.8656 -109.6169 280° West 437 503 32,000  Level Salt Lake Center
06:12AM 40.8883 -109.7964 280° West 441 507 32,000  Level Salt Lake Center
06:13AM 40.9069 -109.9489 279° West 439 505 32,000  Level Salt Lake Center
06:14AM 40.9258 -110.1019 279° West 439 505 32,000  Level Salt Lake Center
06:15AM 40.9447 -110.2567 279° West 443 510 32,000  Level Salt Lake Center
06:16AM 40.9653 -110.4350 279° West 440 506 32,000 -900 Level Salt Lake Center
06:17AM 40.9836 -110.5881 279° West 439 505 30,300 -2,040 Descending Salt Lake Center
06:18AM 41.0014 -110.7392 279° West 422 486 28,000 -1,980 Descending Salt Lake Center
06:19AM 41.0181 -110.8844 279° West 404 465 26,400 -1,740 Descending Salt Lake Center
06:20AM 41.0339 -111.0286 278° West 398 458 24,600 -2,280 Descending Salt Lake Center
06:20AM 41.0397 -111.1081 276° West 401 461 23,000 -2,220 Descending Salt Lake Center
06:26AM 41.1220 -111.8240 276° West 276 318 11,600 -1,920 Descending FlightAware
06:26AM 41.1290 -111.8890 278° West 267 307 11,600 -540 Level FlightAware
06:27AM 41.1360 -111.9630 277° West 266 306 10,900 -1,080 Descending FlightAware
06:28AM 41.1240 -112.0230 255° West 261 300 10,100 -1,140 Descending FlightAware
06:28AM 41.1090 -112.0330 207° Southwest 255 293 9,900 -900 Descending FlightAware
06:29AM 41.0630 -112.0290 176° South 228 262 9,300 -1,080 Descending FlightAware
06:29AM 41.0340 -112.0250 174° South 215 247 8,700 -1,200 Descending FlightAware
06:30AM 41.0120 -112.0220 174° South 205 236 8,200 -1,560 Descending FlightAware
06:30AM 40.9810 -112.0200 177° South 200 230 7,300 -1,620 Descending FlightAware
06:31AM 40.9540 -112.0170 175° South 194 223 6,600 -1,140 Descending FlightAware
06:31AM 40.9330 -112.0140 174° South 185 213 6,300 -900 Descending FlightAware
06:31AM 40.9200 -112.0120 173° South 181 208 6,000 -960 Descending FlightAware
06:32AM 40.8960 -112.0100 176° South 162 186 5,600 -780 Descending FlightAware
06:32AM 40.8790 -112.0080 175° South 144 166 5,300 -780 Descending FlightAware
06:33AM 40.8590 -112.0050 174° South 141 162 4,900 -780 Descending FlightAware
06:33AM 40.8420 -112.0030 175° South 139 160 4,600 -780 Descending FlightAware
06:33AM 40.8330 -112.0020 175° South 139 160 4,400 -840 Descending FlightAware
06:34AM 40.8130 -112.0000 176° South 134 154 4,000 -840 Descending FlightAware